»·PEaware :: N41DM KHII-KVGT

N41DM :: KHII-KVGT

FLIGHT INFORMATION

Flight Status: Arrived
Operator: Privately registered:
United States
More flights under this callsign
Pilot: Ryan J. (4311)
Aircraft: CESSNA 172 SKYHAWK
(C172)
More flights by this aircraft type
Origin: KHII Lake Havasu City
United States
Destination: KVGT North Las Vegas
United States
More flights between these airports :: More routes between these airports
Route: EED V237 BLD
File this flight plan on PilotEdge
Remarks:
Altitude:
(Current/Filed)
8,000ft
Speed:
(Current/Filed)
115kts
Departed: 09-Aug-18 09:41 PM
Arrived: 09-Aug-18 10:59 PM
Distance/Time
Traveled:
106nm/1:18
Distance/Time
To Go:
Arrived

Flight Plot

Page will automatically refresh every two minutes.


Map Options




Map Legend


Flown Route
Filed Route
Departure Airport
Arrival Airport
Navaid (VOR, NDB)
Fix

Horizontal Profiles

Position Reports

Time Latitude Longitude Heading Altitude Ground
Speed
09-Aug-18 20:55 34.571127 -114.358291 359 756ft 0kts
09-Aug-18 20:56 34.571127 -114.358291 359 756ft 0kts
09-Aug-18 21:03 34.571127 -114.358291 359 756ft 0kts
09-Aug-18 21:05 34.571127 -114.358291 359 756ft 0kts
09-Aug-18 21:06 34.571127 -114.358291 359 756ft 0kts
09-Aug-18 21:07 34.571127 -114.358291 359 756ft 0kts
09-Aug-18 21:08 34.571127 -114.358291 359 756ft 0kts
09-Aug-18 21:11 34.567492 -114.359612 162 731ft 0kts
09-Aug-18 21:12 34.567492 -114.359612 162 731ft 0kts
09-Aug-18 21:13 34.567492 -114.359612 162 731ft 0kts
09-Aug-18 21:14 34.567492 -114.359612 162 731ft 0kts
09-Aug-18 21:15 34.567492 -114.359612 162 731ft 0kts
09-Aug-18 21:16 34.567492 -114.359612 162 731ft 0kts
09-Aug-18 21:17 34.567492 -114.359612 162 731ft 0kts
09-Aug-18 21:18 34.567492 -114.359612 162 731ft 0kts
09-Aug-18 21:19 34.567492 -114.359612 162 731ft 0kts
09-Aug-18 21:20 34.567492 -114.359612 162 731ft 0kts
09-Aug-18 21:21 34.567492 -114.359612 162 731ft 0kts
09-Aug-18 21:22 34.567492 -114.359612 162 731ft 0kts
09-Aug-18 21:23 34.567492 -114.359612 162 731ft 0kts
09-Aug-18 21:24 34.567492 -114.359612 162 731ft 0kts
09-Aug-18 21:25 34.567492 -114.359612 162 731ft 0kts
09-Aug-18 21:26 34.567492 -114.359612 162 731ft 0kts
09-Aug-18 21:27 34.567492 -114.359612 162 731ft 0kts
09-Aug-18 21:28 34.567492 -114.359612 162 731ft 0kts
09-Aug-18 21:29 34.567492 -114.359612 162 731ft 0kts
09-Aug-18 21:30 34.567492 -114.359612 162 731ft 0kts
09-Aug-18 21:31 34.567492 -114.359612 162 731ft 0kts
09-Aug-18 21:32 34.567492 -114.359612 162 731ft 0kts
09-Aug-18 21:33 34.567492 -114.359612 162 731ft 0kts
09-Aug-18 21:34 34.567490 -114.359611 161 731ft 0kts
09-Aug-18 21:35 34.568247 -114.358252 61 742ft 11kts
09-Aug-18 21:36 34.573305 -114.361166 334 751ft 33kts
09-Aug-18 21:37 34.580044 -114.365760 26 749ft 2kts
09-Aug-18 21:38 34.580047 -114.365758 26 750ft 0kts
09-Aug-18 21:39 34.580047 -114.365758 26 750ft 0kts
09-Aug-18 21:40 34.580047 -114.365758 26 750ft 0kts
09-Aug-18 21:41 34.580106 -114.364641 150 753ft 2kts
09-Aug-18 21:42 34.565718 -114.354420 151 1320ft 76kts
09-Aug-18 21:43 34.547554 -114.342716 162 2229ft 82kts
09-Aug-18 21:44 34.540269 -114.365240 301 3040ft 101kts
09-Aug-18 21:45 34.554289 -114.390393 302 3960ft 94kts
09-Aug-18 21:46 34.568772 -114.419153 295 4672ft 103kts
09-Aug-18 21:47 34.590927 -114.437424 352 5361ft 104kts
09-Aug-18 21:48 34.614530 -114.442507 352 5947ft 103kts
09-Aug-18 21:49 34.647894 -114.449573 352 6648ft 110kts
09-Aug-18 21:50 34.673425 -114.454906 352 7071ft 113kts
09-Aug-18 21:51 34.709597 -114.463660 353 7661ft 113kts
09-Aug-18 21:52 34.735863 -114.468599 352 7974ft 122kts
09-Aug-18 21:53 34.776913 -114.476650 352 7974ft 130kts
09-Aug-18 21:54 34.806991 -114.482806 352 7973ft 131kts
09-Aug-18 21:55 34.842268 -114.490916 333 7972ft 129kts
09-Aug-18 21:56 34.875244 -114.507789 344 7973ft 128kts
09-Aug-18 21:57 34.909671 -114.519044 348 7975ft 128kts
09-Aug-18 21:58 34.943746 -114.529737 350 7977ft 125kts
09-Aug-18 21:59 34.976815 -114.540096 351 7979ft 120kts
09-Aug-18 22:00 35.008585 -114.550057 351 7980ft 115kts
09-Aug-18 22:01 35.038994 -114.559624 350 7980ft 111kts
09-Aug-18 22:02 35.068513 -114.568947 350 7980ft 109kts
09-Aug-18 22:03 35.097533 -114.578105 350 8017ft 105kts
09-Aug-18 22:04 35.125558 -114.586913 350 8019ft 107kts
09-Aug-18 22:05 35.154559 -114.596026 350 8022ft 108kts
09-Aug-18 22:06 35.183746 -114.605226 351 8000ft 108kts
09-Aug-18 22:07 35.212720 -114.614359 350 8001ft 107kts
09-Aug-18 22:08 35.241565 -114.623461 350 8000ft 107kts
09-Aug-18 22:09 35.270493 -114.632598 350 8001ft 107kts
09-Aug-18 22:10 35.299498 -114.641754 350 7999ft 107kts
09-Aug-18 22:11 35.328191 -114.650829 349 7999ft 107kts
09-Aug-18 22:12 35.357045 -114.659967 349 7998ft 107kts
09-Aug-18 22:13 35.385985 -114.669116 350 7999ft 107kts
09-Aug-18 22:14 35.414877 -114.678279 350 7997ft 109kts
09-Aug-18 22:15 35.444576 -114.687708 350 8001ft 110kts
09-Aug-18 22:16 35.474422 -114.697175 349 8000ft 111kts
09-Aug-18 22:17 35.504204 -114.706647 350 8000ft 110kts
09-Aug-18 22:18 35.533945 -114.716095 350 8000ft 110kts
09-Aug-18 22:19 35.563692 -114.725562 350 8018ft 110kts
09-Aug-18 22:20 35.593550 -114.734984 339 8020ft 113kts
09-Aug-18 22:21 35.625129 -114.745077 336 8037ft 119kts
09-Aug-18 22:22 35.653687 -114.762750 319 8046ft 114kts
09-Aug-18 22:23 35.680500 -114.783717 319 8053ft 114kts
09-Aug-18 22:24 35.707342 -114.804596 319 8055ft 114kts
09-Aug-18 22:25 35.734218 -114.825486 320 8056ft 114kts
09-Aug-18 22:26 35.761123 -114.846456 320 8058ft 114kts
09-Aug-18 22:27 35.778720 -114.860238 320 8056ft 114kts
09-Aug-18 22:28 35.805518 -114.881112 320 8056ft 114kts
09-Aug-18 22:29 35.832377 -114.901971 320 8055ft 114kts
09-Aug-18 22:30 35.859272 -114.922813 319 8054ft 114kts
09-Aug-18 22:31 35.886044 -114.943661 319 8055ft 114kts
09-Aug-18 22:32 35.912995 -114.964548 319 8056ft 114kts
09-Aug-18 22:33 35.939864 -114.985529 320 8052ft 114kts
09-Aug-18 22:34 35.966605 -115.006762 319 8053ft 115kts
09-Aug-18 22:35 35.990907 -115.031546 310 8050ft 113kts
09-Aug-18 22:36 36.014006 -115.057841 311 8041ft 114kts
09-Aug-18 22:37 36.035924 -115.083386 311 8027ft 115kts
09-Aug-18 22:38 36.053328 -115.104154 311 8016ft 115kts
09-Aug-18 22:39 36.075902 -115.131867 311 8003ft 115kts
09-Aug-18 22:40 36.098053 -115.159918 311 7992ft 116kts
09-Aug-18 22:41 36.119736 -115.188300 311 7982ft 116kts
09-Aug-18 22:42 36.141695 -115.217902 311 7972ft 117kts
09-Aug-18 22:43 36.163527 -115.247793 311 7997ft 115kts
09-Aug-18 22:44 36.185164 -115.277578 311 7999ft 117kts
09-Aug-18 22:45 36.206979 -115.307607 311 7999ft 117kts
09-Aug-18 22:46 36.227231 -115.339157 301 7999ft 117kts
09-Aug-18 22:47 36.244351 -115.373578 301 7999ft 117kts
09-Aug-18 22:48 36.261500 -115.408071 301 7999ft 117kts
09-Aug-18 22:49 36.291926 -115.419308 354 7999ft 119kts
09-Aug-18 22:50 36.324983 -115.421422 2 7997ft 120kts
09-Aug-18 22:51 36.342712 -115.387208 70 7896ft 132kts
09-Aug-18 22:52 36.353403 -115.342001 72 7338ft 142kts
09-Aug-18 22:53 36.363357 -115.295657 89 6328ft 128kts
09-Aug-18 22:54 36.336947 -115.273175 166 5127ft 121kts
09-Aug-18 22:55 36.306988 -115.262378 167 4497ft 96kts
09-Aug-18 22:56 36.280054 -115.250577 153 3816ft 100kts
09-Aug-18 22:57 36.257324 -115.233876 153 3275ft 101kts
09-Aug-18 22:58 36.232410 -115.215599 153 2715ft 93kts
09-Aug-18 22:59 36.213464 -115.201109 140 2205ft 74kts
09-Aug-18 23:00 36.211667 -115.198787 250 2196ft 0kts
09-Aug-18 23:01 36.214528 -115.202478 134 2207ft 2kts
09-Aug-18 23:02 36.212185 -115.200660 72 2203ft 12kts
09-Aug-18 23:03 36.211893 -115.201354 284 2202ft 0kts
09-Aug-18 23:04 36.208238 -115.197777 177 2193ft 0kts
09-Aug-18 23:05 36.208238 -115.197777 177 2193ft 0kts
09-Aug-18 23:06 36.208238 -115.197777 177 2193ft 0kts

Navigation Log

Ident Type
1. KHII Airport
2. EED Navaid
3. UNPAS Fix
4. CUTAD Fix
5. LYNSY Fix
6. BLD Navaid
7. KVGT Airport